<?xml version="1.0" encoding="utf-8"?>
<gpx xmlns:xsi="http://www.w3.org/2001/XMLSchema-instance" xmlns:xsd="http://www.w3.org/2001/XMLSchema" version="1.1" creator="Shapelink.com" xmlns="http://www.topografix.com/GPX/1/1" xmlns:gpxtpx="http://www.garmin.com/xmlschemas/TrackPointExtension/v1">
  <metadata>
    <name>Promenad 4.40 km, 2017-01-29</name>
    <desc></desc>
    <author><name>Morten Hedlund</name></author> 
    <time>2017-01-29T12:46:46Z</time>
  </metadata>
  <trk>
    <name>Promenad 4.40 km, 2017-01-29</name>
    <trkseg>
      <trkpt lat="60.250056759912" lon="11.029336023126">
        <ele>186.2</ele>
        <time>2017-01-29T12:46:46Z</time>
      </trkpt>
      <trkpt lat="60.250063800708" lon="11.029263100596">
        <ele>191.4</ele>
        <time>2017-01-29T12:48:40Z</time>
      </trkpt>
      <trkpt lat="60.249993895662" lon="11.029589324144">
        <ele>191.6</ele>
        <time>2017-01-29T12:49:02Z</time>
      </trkpt>
      <trkpt lat="60.24981971978" lon="11.029469965888">
        <ele>191.6</ele>
        <time>2017-01-29T12:49:16Z</time>
      </trkpt>
      <trkpt lat="60.249669432313" lon="11.029269219383">
        <ele>192</ele>
        <time>2017-01-29T12:49:36Z</time>
      </trkpt>
      <trkpt lat="60.249552253351" lon="11.028999070746">
        <ele>193.2</ele>
        <time>2017-01-29T12:50:05Z</time>
      </trkpt>
      <trkpt lat="60.249605394597" lon="11.028651976267">
        <ele>193.6</ele>
        <time>2017-01-29T12:50:20Z</time>
      </trkpt>
      <trkpt lat="60.249641604405" lon="11.028432035211">
        <ele>194</ele>
        <time>2017-01-29T12:50:29Z</time>
      </trkpt>
      <trkpt lat="60.249702037904" lon="11.028066500552">
        <ele>195</ele>
        <time>2017-01-29T12:50:43Z</time>
      </trkpt>
      <trkpt lat="60.249775798624" lon="11.027729967267">
        <ele>192.6</ele>
        <time>2017-01-29T12:50:58Z</time>
      </trkpt>
      <trkpt lat="60.249820055056" lon="11.027361415124">
        <ele>193.2</ele>
        <time>2017-01-29T12:51:13Z</time>
      </trkpt>
      <trkpt lat="60.249859366167" lon="11.027302490367">
        <ele>193.6</ele>
        <time>2017-01-29T12:51:17Z</time>
      </trkpt>
      <trkpt lat="60.250033793506" lon="11.02744473121">
        <ele>190.2</ele>
        <time>2017-01-29T12:51:32Z</time>
      </trkpt>
      <trkpt lat="60.250209059035" lon="11.027574902117">
        <ele>188.8</ele>
        <time>2017-01-29T12:51:48Z</time>
      </trkpt>
      <trkpt lat="60.25038298346" lon="11.027727871792">
        <ele>191.6</ele>
        <time>2017-01-29T12:52:05Z</time>
      </trkpt>
      <trkpt lat="60.25054307775" lon="11.027890815928">
        <ele>192.4</ele>
        <time>2017-01-29T12:52:19Z</time>
      </trkpt>
      <trkpt lat="60.250713733234" lon="11.027877572526">
        <ele>192.4</ele>
        <time>2017-01-29T12:52:38Z</time>
      </trkpt>
      <trkpt lat="60.250822697934" lon="11.027592671745">
        <ele>194.4</ele>
        <time>2017-01-29T12:52:56Z</time>
      </trkpt>
      <trkpt lat="60.25090014669" lon="11.027266951111">
        <ele>195.2</ele>
        <time>2017-01-29T12:53:13Z</time>
      </trkpt>
      <trkpt lat="60.250979271826" lon="11.026929914912">
        <ele>197.2</ele>
        <time>2017-01-29T12:53:29Z</time>
      </trkpt>
      <trkpt lat="60.251074657848" lon="11.026611654169">
        <ele>197</ele>
        <time>2017-01-29T12:53:44Z</time>
      </trkpt>
      <trkpt lat="60.251246989712" lon="11.026649121262">
        <ele>196.8</ele>
        <time>2017-01-29T12:53:59Z</time>
      </trkpt>
      <trkpt lat="60.251428038752" lon="11.026772670468">
        <ele>195.2</ele>
        <time>2017-01-29T12:54:15Z</time>
      </trkpt>
      <trkpt lat="60.251608920154" lon="11.026853388165">
        <ele>195.4</ele>
        <time>2017-01-29T12:54:29Z</time>
      </trkpt>
      <trkpt lat="60.251778653629" lon="11.02697199205">
        <ele>196.8</ele>
        <time>2017-01-29T12:54:43Z</time>
      </trkpt>
      <trkpt lat="60.251952661873" lon="11.027141557887">
        <ele>197</ele>
        <time>2017-01-29T12:54:59Z</time>
      </trkpt>
      <trkpt lat="60.252115270733" lon="11.027303496195">
        <ele>196</ele>
        <time>2017-01-29T12:55:15Z</time>
      </trkpt>
      <trkpt lat="60.252272850453" lon="11.027494268239">
        <ele>198</ele>
        <time>2017-01-29T12:55:30Z</time>
      </trkpt>
      <trkpt lat="60.252434956399" lon="11.027693841278">
        <ele>198.8</ele>
        <time>2017-01-29T12:55:45Z</time>
      </trkpt>
      <trkpt lat="60.252595972698" lon="11.027858377975">
        <ele>199.2</ele>
        <time>2017-01-29T12:55:59Z</time>
      </trkpt>
      <trkpt lat="60.25276260487" lon="11.02801218584">
        <ele>199.6</ele>
        <time>2017-01-29T12:56:14Z</time>
      </trkpt>
      <trkpt lat="60.252919765495" lon="11.028207065015">
        <ele>198</ele>
        <time>2017-01-29T12:56:28Z</time>
      </trkpt>
      <trkpt lat="60.25308363164" lon="11.028365734382">
        <ele>198.4</ele>
        <time>2017-01-29T12:56:42Z</time>
      </trkpt>
      <trkpt lat="60.253242384826" lon="11.028555584417">
        <ele>197.4</ele>
        <time>2017-01-29T12:56:56Z</time>
      </trkpt>
      <trkpt lat="60.253399461632" lon="11.028437567265">
        <ele>199.8</ele>
        <time>2017-01-29T12:57:12Z</time>
      </trkpt>
      <trkpt lat="60.253460062769" lon="11.028089886053">
        <ele>199</ele>
        <time>2017-01-29T12:57:28Z</time>
      </trkpt>
      <trkpt lat="60.253515383309" lon="11.027735750778">
        <ele>199.6</ele>
        <time>2017-01-29T12:57:44Z</time>
      </trkpt>
      <trkpt lat="60.253571039125" lon="11.027637095815">
        <ele>199.8</ele>
        <time>2017-01-29T12:57:50Z</time>
      </trkpt>
      <trkpt lat="60.253758961323" lon="11.027625193517">
        <ele>197.6</ele>
        <time>2017-01-29T12:58:09Z</time>
      </trkpt>
      <trkpt lat="60.253932382834" lon="11.027730051086">
        <ele>197.2</ele>
        <time>2017-01-29T12:58:25Z</time>
      </trkpt>
      <trkpt lat="60.254098847368" lon="11.027867095151">
        <ele>198.8</ele>
        <time>2017-01-29T12:58:42Z</time>
      </trkpt>
      <trkpt lat="60.254254834527" lon="11.028073625167">
        <ele>196.8</ele>
        <time>2017-01-29T12:59:03Z</time>
      </trkpt>
      <trkpt lat="60.254404451442" lon="11.028284346133">
        <ele>197.4</ele>
        <time>2017-01-29T12:59:19Z</time>
      </trkpt>
      <trkpt lat="60.254532107779" lon="11.028534462029">
        <ele>198.4</ele>
        <time>2017-01-29T12:59:37Z</time>
      </trkpt>
      <trkpt lat="60.254659345021" lon="11.028801425544">
        <ele>198.4</ele>
        <time>2017-01-29T12:59:54Z</time>
      </trkpt>
      <trkpt lat="60.254784235331" lon="11.029065958308">
        <ele>197.8</ele>
        <time>2017-01-29T13:00:10Z</time>
      </trkpt>
      <trkpt lat="60.254905521424" lon="11.029333592375">
        <ele>199</ele>
        <time>2017-01-29T13:00:26Z</time>
      </trkpt>
      <trkpt lat="60.255040134738" lon="11.029576918932">
        <ele>197.4</ele>
        <time>2017-01-29T13:00:44Z</time>
      </trkpt>
      <trkpt lat="60.255160582641" lon="11.029854778917">
        <ele>197.2</ele>
        <time>2017-01-29T13:01:05Z</time>
      </trkpt>
      <trkpt lat="60.255313133221" lon="11.030074552335">
        <ele>198.4</ele>
        <time>2017-01-29T13:01:20Z</time>
      </trkpt>
      <trkpt lat="60.255445231965" lon="11.030334223597">
        <ele>199.2</ele>
        <time>2017-01-29T13:01:36Z</time>
      </trkpt>
      <trkpt lat="60.255586047885" lon="11.03056782715">
        <ele>199</ele>
        <time>2017-01-29T13:01:55Z</time>
      </trkpt>
      <trkpt lat="60.255721834665" lon="11.030824229471">
        <ele>198</ele>
        <time>2017-01-29T13:02:15Z</time>
      </trkpt>
      <trkpt lat="60.255858711092" lon="11.031081721439">
        <ele>197.2</ele>
        <time>2017-01-29T13:02:33Z</time>
      </trkpt>
      <trkpt lat="60.255997096261" lon="11.031317588105">
        <ele>197.2</ele>
        <time>2017-01-29T13:02:50Z</time>
      </trkpt>
      <trkpt lat="60.256134894697" lon="11.031552616581">
        <ele>197.8</ele>
        <time>2017-01-29T13:03:06Z</time>
      </trkpt>
      <trkpt lat="60.256276213531" lon="11.031806504332">
        <ele>199</ele>
        <time>2017-01-29T13:03:23Z</time>
      </trkpt>
      <trkpt lat="60.256408563732" lon="11.032062822834">
        <ele>199.8</ele>
        <time>2017-01-29T13:03:39Z</time>
      </trkpt>
      <trkpt lat="60.256557845371" lon="11.032302377536">
        <ele>199</ele>
        <time>2017-01-29T13:03:55Z</time>
      </trkpt>
      <trkpt lat="60.256668151175" lon="11.032561126789">
        <ele>198.6</ele>
        <time>2017-01-29T13:04:14Z</time>
      </trkpt>
      <trkpt lat="60.256612243902" lon="11.032907885992">
        <ele>201.6</ele>
        <time>2017-01-29T13:04:29Z</time>
      </trkpt>
      <trkpt lat="60.25651853426" lon="11.033238551947">
        <ele>203.6</ele>
        <time>2017-01-29T13:04:45Z</time>
      </trkpt>
      <trkpt lat="60.256400098013" lon="11.033522279262">
        <ele>204.8</ele>
        <time>2017-01-29T13:05:00Z</time>
      </trkpt>
      <trkpt lat="60.2564062168" lon="11.03386359023">
        <ele>204.4</ele>
        <time>2017-01-29T13:05:17Z</time>
      </trkpt>
      <trkpt lat="60.256510319998" lon="11.034180006955">
        <ele>202.6</ele>
        <time>2017-01-29T13:05:34Z</time>
      </trkpt>
      <trkpt lat="60.256587098202" lon="11.034525592692">
        <ele>200.8</ele>
        <time>2017-01-29T13:05:51Z</time>
      </trkpt>
      <trkpt lat="60.256695140893" lon="11.034838069924">
        <ele>200</ele>
        <time>2017-01-29T13:06:08Z</time>
      </trkpt>
      <trkpt lat="60.256791029829" lon="11.035151133889">
        <ele>198.2</ele>
        <time>2017-01-29T13:06:24Z</time>
      </trkpt>
      <trkpt lat="60.256905526583" lon="11.03542932915">
        <ele>200.2</ele>
        <time>2017-01-29T13:06:38Z</time>
      </trkpt>
      <trkpt lat="60.257027483228" lon="11.035718923795">
        <ele>201.8</ele>
        <time>2017-01-29T13:06:54Z</time>
      </trkpt>
      <trkpt lat="60.25712538382" lon="11.036036681624">
        <ele>202.4</ele>
        <time>2017-01-29T13:07:09Z</time>
      </trkpt>
      <trkpt lat="60.257180871998" lon="11.036383608465">
        <ele>201.8</ele>
        <time>2017-01-29T13:07:23Z</time>
      </trkpt>
      <trkpt lat="60.25715807323" lon="11.036753920807">
        <ele>202.4</ele>
        <time>2017-01-29T13:07:38Z</time>
      </trkpt>
      <trkpt lat="60.257107530373" lon="11.037100428553">
        <ele>203.8</ele>
        <time>2017-01-29T13:07:54Z</time>
      </trkpt>
      <trkpt lat="60.257037709146" lon="11.037435453096">
        <ele>204</ele>
        <time>2017-01-29T13:08:08Z</time>
      </trkpt>
      <trkpt lat="60.256987166289" lon="11.037792605855">
        <ele>206.4</ele>
        <time>2017-01-29T13:08:23Z</time>
      </trkpt>
      <trkpt lat="60.256949447739" lon="11.038110112227">
        <ele>202.2</ele>
        <time>2017-01-29T13:09:02Z</time>
      </trkpt>
      <trkpt lat="60.257029662522" lon="11.038431390454">
        <ele>197.4</ele>
        <time>2017-01-29T13:09:25Z</time>
      </trkpt>
      <trkpt lat="60.257195624142" lon="11.038607242716">
        <ele>194.6</ele>
        <time>2017-01-29T13:09:44Z</time>
      </trkpt>
      <trkpt lat="60.257200653282" lon="11.038991385193">
        <ele>197.4</ele>
        <time>2017-01-29T13:10:00Z</time>
      </trkpt>
      <trkpt lat="60.257156648307" lon="11.039346777753">
        <ele>200.8</ele>
        <time>2017-01-29T13:10:15Z</time>
      </trkpt>
      <trkpt lat="60.257048186521" lon="11.039901324257">
        <ele>202.2</ele>
        <time>2017-01-29T13:10:39Z</time>
      </trkpt>
      <trkpt lat="60.256985322271" lon="11.04025143622">
        <ele>203.2</ele>
        <time>2017-01-29T13:10:55Z</time>
      </trkpt>
      <trkpt lat="60.256934779414" lon="11.040613282843">
        <ele>203.4</ele>
        <time>2017-01-29T13:11:12Z</time>
      </trkpt>
      <trkpt lat="60.256862443617" lon="11.040974542733">
        <ele>203.2</ele>
        <time>2017-01-29T13:11:28Z</time>
      </trkpt>
      <trkpt lat="60.256794131132" lon="11.041313171493">
        <ele>202.8</ele>
        <time>2017-01-29T13:11:42Z</time>
      </trkpt>
      <trkpt lat="60.256722130611" lon="11.041649201864">
        <ele>200.6</ele>
        <time>2017-01-29T13:11:58Z</time>
      </trkpt>
      <trkpt lat="60.256673767048" lon="11.041999816741">
        <ele>203</ele>
        <time>2017-01-29T13:12:16Z</time>
      </trkpt>
      <trkpt lat="60.256639401258" lon="11.042374152395">
        <ele>206.8</ele>
        <time>2017-01-29T13:12:32Z</time>
      </trkpt>
      <trkpt lat="60.256542422675" lon="11.042710601861">
        <ele>201.4</ele>
        <time>2017-01-29T13:12:48Z</time>
      </trkpt>
      <trkpt lat="60.256480731891" lon="11.043069011905">
        <ele>203.2</ele>
        <time>2017-01-29T13:13:04Z</time>
      </trkpt>
      <trkpt lat="60.256452149612" lon="11.043177976605">
        <ele>204</ele>
        <time>2017-01-29T13:13:11Z</time>
      </trkpt>
      <trkpt lat="60.256399846556" lon="11.043534123536">
        <ele>201.8</ele>
        <time>2017-01-29T13:13:26Z</time>
      </trkpt>
      <trkpt lat="60.256367827698" lon="11.04390007729">
        <ele>203.2</ele>
        <time>2017-01-29T13:13:41Z</time>
      </trkpt>
      <trkpt lat="60.256330276786" lon="11.044257062411">
        <ele>204.8</ele>
        <time>2017-01-29T13:13:57Z</time>
      </trkpt>
      <trkpt lat="60.25627462097" lon="11.044614047532">
        <ele>202</ele>
        <time>2017-01-29T13:14:12Z</time>
      </trkpt>
      <trkpt lat="60.256216115308" lon="11.044965249142">
        <ele>202.6</ele>
        <time>2017-01-29T13:14:27Z</time>
      </trkpt>
      <trkpt lat="60.256163812252" lon="11.045331957267">
        <ele>202.2</ele>
        <time>2017-01-29T13:14:43Z</time>
      </trkpt>
      <trkpt lat="60.256125255512" lon="11.045696989012">
        <ele>203</ele>
        <time>2017-01-29T13:14:59Z</time>
      </trkpt>
      <trkpt lat="60.256103714029" lon="11.046066379345">
        <ele>202.4</ele>
        <time>2017-01-29T13:15:15Z</time>
      </trkpt>
      <trkpt lat="60.256069767334" lon="11.04643141109">
        <ele>202.4</ele>
        <time>2017-01-29T13:15:30Z</time>
      </trkpt>
      <trkpt lat="60.256035988277" lon="11.04678931822">
        <ele>203.6</ele>
        <time>2017-01-29T13:15:45Z</time>
      </trkpt>
      <trkpt lat="60.256003466505" lon="11.047161893675">
        <ele>204.6</ele>
        <time>2017-01-29T13:16:02Z</time>
      </trkpt>
      <trkpt lat="60.255979075176" lon="11.047523991755">
        <ele>204.2</ele>
        <time>2017-01-29T13:16:17Z</time>
      </trkpt>
      <trkpt lat="60.255968178706" lon="11.04790327273">
        <ele>203.4</ele>
        <time>2017-01-29T13:16:33Z</time>
      </trkpt>
      <trkpt lat="60.255943200644" lon="11.048261850412">
        <ele>203</ele>
        <time>2017-01-29T13:16:50Z</time>
      </trkpt>
      <trkpt lat="60.255916546202" lon="11.048623864673">
        <ele>203.4</ele>
        <time>2017-01-29T13:17:06Z</time>
      </trkpt>
      <trkpt lat="60.255890143217" lon="11.048994344653">
        <ele>202.4</ele>
        <time>2017-01-29T13:17:22Z</time>
      </trkpt>
      <trkpt lat="60.255860638929" lon="11.049358538208">
        <ele>202.6</ele>
        <time>2017-01-29T13:17:39Z</time>
      </trkpt>
      <trkpt lat="60.25583540941" lon="11.049722731763">
        <ele>204.8</ele>
        <time>2017-01-29T13:18:08Z</time>
      </trkpt>
      <trkpt lat="60.255812694461" lon="11.050098995254">
        <ele>205.6</ele>
        <time>2017-01-29T13:18:24Z</time>
      </trkpt>
      <trkpt lat="60.255784028363" lon="11.05043795929">
        <ele>205.8</ele>
        <time>2017-01-29T13:18:47Z</time>
      </trkpt>
      <trkpt lat="60.255614797802" lon="11.050307956021">
        <ele>204.4</ele>
        <time>2017-01-29T13:19:06Z</time>
      </trkpt>
      <trkpt lat="60.255463839783" lon="11.050115675235">
        <ele>204.4</ele>
        <time>2017-01-29T13:19:25Z</time>
      </trkpt>
      <trkpt lat="60.255322604768" lon="11.049872516316">
        <ele>203.6</ele>
        <time>2017-01-29T13:19:45Z</time>
      </trkpt>
      <trkpt lat="60.255199977571" lon="11.049603708783">
        <ele>201.6</ele>
        <time>2017-01-29T13:20:02Z</time>
      </trkpt>
      <trkpt lat="60.25507098013" lon="11.049356107457">
        <ele>200.6</ele>
        <time>2017-01-29T13:20:37Z</time>
      </trkpt>
      <trkpt lat="60.254936282997" lon="11.049091323236">
        <ele>199.6</ele>
        <time>2017-01-29T13:20:57Z</time>
      </trkpt>
      <trkpt lat="60.254812314696" lon="11.048827377205">
        <ele>199</ele>
        <time>2017-01-29T13:21:14Z</time>
      </trkpt>
      <trkpt lat="60.254663116876" lon="11.048608777253">
        <ele>198</ele>
        <time>2017-01-29T13:21:30Z</time>
      </trkpt>
      <trkpt lat="60.254499921283" lon="11.048439043778">
        <ele>197</ele>
        <time>2017-01-29T13:21:48Z</time>
      </trkpt>
      <trkpt lat="60.254457089774" lon="11.048305184835">
        <ele>197</ele>
        <time>2017-01-29T13:21:55Z</time>
      </trkpt>
      <trkpt lat="60.254418700672" lon="11.047932777018">
        <ele>197</ele>
        <time>2017-01-29T13:22:13Z</time>
      </trkpt>
      <trkpt lat="60.254396991551" lon="11.047570762757">
        <ele>197</ele>
        <time>2017-01-29T13:22:29Z</time>
      </trkpt>
      <trkpt lat="60.254329433437" lon="11.04722852978">
        <ele>196.4</ele>
        <time>2017-01-29T13:22:47Z</time>
      </trkpt>
      <trkpt lat="60.254218457081" lon="11.046937761669">
        <ele>195.4</ele>
        <time>2017-01-29T13:23:06Z</time>
      </trkpt>
      <trkpt lat="60.254136146823" lon="11.046818151956">
        <ele>195.4</ele>
        <time>2017-01-29T13:23:16Z</time>
      </trkpt>
      <trkpt lat="60.254109827657" lon="11.046740200286">
        <ele>196.4</ele>
        <time>2017-01-29T13:23:21Z</time>
      </trkpt>
      <trkpt lat="60.253939255992" lon="11.046597707986">
        <ele>196.8</ele>
        <time>2017-01-29T13:23:40Z</time>
      </trkpt>
      <trkpt lat="60.253768851965" lon="11.046435937316">
        <ele>196.4</ele>
        <time>2017-01-29T13:23:57Z</time>
      </trkpt>
      <trkpt lat="60.253623174543" lon="11.046356476904">
        <ele>195.8</ele>
        <time>2017-01-29T13:24:13Z</time>
      </trkpt>
      <trkpt lat="60.25352032863" lon="11.046664008815">
        <ele>199.6</ele>
        <time>2017-01-29T13:24:40Z</time>
      </trkpt>
      <trkpt lat="60.253430139386" lon="11.046969193794">
        <ele>199.4</ele>
        <time>2017-01-29T13:25:03Z</time>
      </trkpt>
      <trkpt lat="60.253337770848" lon="11.047286532528">
        <ele>200.8</ele>
        <time>2017-01-29T13:25:19Z</time>
      </trkpt>
      <trkpt lat="60.253236768953" lon="11.047553160767">
        <ele>203.6</ele>
        <time>2017-01-29T13:25:36Z</time>
      </trkpt>
      <trkpt lat="60.253115734317" lon="11.047830517838">
        <ele>202.2</ele>
        <time>2017-01-29T13:25:55Z</time>
      </trkpt>
      <trkpt lat="60.253003835952" lon="11.048113490782">
        <ele>201</ele>
        <time>2017-01-29T13:26:11Z</time>
      </trkpt>
      <trkpt lat="60.252912305604" lon="11.048450694619">
        <ele>201.2</ele>
        <time>2017-01-29T13:26:29Z</time>
      </trkpt>
      <trkpt lat="60.25281960179" lon="11.048781444393">
        <ele>201.2</ele>
        <time>2017-01-29T13:26:45Z</time>
      </trkpt>
      <trkpt lat="60.252671745074" lon="11.048994512291">
        <ele>198.8</ele>
        <time>2017-01-29T13:27:01Z</time>
      </trkpt>
      <trkpt lat="60.252480051021" lon="11.048971042971">
        <ele>197.2</ele>
        <time>2017-01-29T13:27:20Z</time>
      </trkpt>
      <trkpt lat="60.252297493239" lon="11.049051844487">
        <ele>197.8</ele>
        <time>2017-01-29T13:27:35Z</time>
      </trkpt>
      <trkpt lat="60.252114935457" lon="11.049168604354">
        <ele>199.6</ele>
        <time>2017-01-29T13:27:51Z</time>
      </trkpt>
      <trkpt lat="60.251933467322" lon="11.049214369528">
        <ele>201.6</ele>
        <time>2017-01-29T13:28:06Z</time>
      </trkpt>
      <trkpt lat="60.251752837377" lon="11.04930472641">
        <ele>201.8</ele>
        <time>2017-01-29T13:28:26Z</time>
      </trkpt>
      <trkpt lat="60.251579415866" lon="11.049401285898">
        <ele>201</ele>
        <time>2017-01-29T13:28:55Z</time>
      </trkpt>
      <trkpt lat="60.251399456473" lon="11.049525840932">
        <ele>199.8</ele>
        <time>2017-01-29T13:29:12Z</time>
      </trkpt>
      <trkpt lat="60.251304321908" lon="11.049250327879">
        <ele>199.6</ele>
        <time>2017-01-29T13:29:30Z</time>
      </trkpt>
      <trkpt lat="60.251235841785" lon="11.048911363843">
        <ele>203.2</ele>
        <time>2017-01-29T13:29:45Z</time>
      </trkpt>
      <trkpt lat="60.251142551238" lon="11.048585978485">
        <ele>202.8</ele>
        <time>2017-01-29T13:30:00Z</time>
      </trkpt>
      <trkpt lat="60.251057894048" lon="11.048267717742">
        <ele>202.8</ele>
        <time>2017-01-29T13:30:15Z</time>
      </trkpt>
      <trkpt lat="60.250961418379" lon="11.047953731768">
        <ele>198.6</ele>
        <time>2017-01-29T13:30:30Z</time>
      </trkpt>
      <trkpt lat="60.250861170855" lon="11.047638991423">
        <ele>198.4</ele>
        <time>2017-01-29T13:30:46Z</time>
      </trkpt>
      <trkpt lat="60.250750697413" lon="11.04732995077">
        <ele>197</ele>
        <time>2017-01-29T13:31:02Z</time>
      </trkpt>
      <trkpt lat="60.250638212315" lon="11.047048151292">
        <ele>195.8</ele>
        <time>2017-01-29T13:31:23Z</time>
      </trkpt>
      <trkpt lat="60.250514327833" lon="11.046766100357">
        <ele>196.4</ele>
        <time>2017-01-29T13:31:37Z</time>
      </trkpt>
      <trkpt lat="60.250398406156" lon="11.046471895667">
        <ele>196</ele>
        <time>2017-01-29T13:31:52Z</time>
      </trkpt>
      <trkpt lat="60.250294470596" lon="11.04616821943">
        <ele>195.2</ele>
        <time>2017-01-29T13:32:08Z</time>
      </trkpt>
      <trkpt lat="60.250256165313" lon="11.046036455962">
        <ele>195.2</ele>
        <time>2017-01-29T13:32:16Z</time>
      </trkpt>
      <trkpt lat="60.250190451217" lon="11.045829339213">
        <ele>194.8</ele>
        <time>2017-01-29T13:32:30Z</time>
      </trkpt>
      <trkpt lat="60.250111996633" lon="11.045487944426">
        <ele>196.6</ele>
        <time>2017-01-29T13:32:51Z</time>
      </trkpt>
      <trkpt lat="60.250071847332" lon="11.045295076907">
        <ele>198.6</ele>
        <time>2017-01-29T13:33:01Z</time>
      </trkpt>
      <trkpt lat="60.249886523523" lon="11.044683952578">
        <ele>196.2</ele>
        <time>2017-01-29T13:33:35Z</time>
      </trkpt>
      <trkpt lat="60.24980463236" lon="11.044356304107">
        <ele>195.4</ele>
        <time>2017-01-29T13:33:56Z</time>
      </trkpt>
      <trkpt lat="60.249699942429" lon="11.044063440521">
        <ele>195.8</ele>
        <time>2017-01-29T13:34:12Z</time>
      </trkpt>
      <trkpt lat="60.24958083563" lon="11.043768565279">
        <ele>195.8</ele>
        <time>2017-01-29T13:34:27Z</time>
      </trkpt>
      <trkpt lat="60.249448569248" lon="11.043487520172">
        <ele>197</ele>
        <time>2017-01-29T13:34:43Z</time>
      </trkpt>
      <trkpt lat="60.249316889599" lon="11.04322533434">
        <ele>196</ele>
        <time>2017-01-29T13:34:58Z</time>
      </trkpt>
      <trkpt lat="60.249213456953" lon="11.04297387734">
        <ele>195.8</ele>
        <time>2017-01-29T13:35:12Z</time>
      </trkpt>
      <trkpt lat="60.24910139095" lon="11.042669446732">
        <ele>194.6</ele>
        <time>2017-01-29T13:35:29Z</time>
      </trkpt>
      <trkpt lat="60.249008938593" lon="11.042346827401">
        <ele>194.8</ele>
        <time>2017-01-29T13:35:46Z</time>
      </trkpt>
      <trkpt lat="60.248938279176" lon="11.041989758461">
        <ele>193.6</ele>
        <time>2017-01-29T13:36:01Z</time>
      </trkpt>
      <trkpt lat="60.248869799053" lon="11.041636880471">
        <ele>193.2</ele>
        <time>2017-01-29T13:36:18Z</time>
      </trkpt>
      <trkpt lat="60.248849179579" lon="11.041552977652">
        <ele>192.8</ele>
        <time>2017-01-29T13:36:23Z</time>
      </trkpt>
      <trkpt lat="60.248796708885" lon="11.041287522879">
        <ele>192.4</ele>
        <time>2017-01-29T13:36:36Z</time>
      </trkpt>
      <trkpt lat="60.24878204056" lon="11.041231447968">
        <ele>192.6</ele>
        <time>2017-01-29T13:36:40Z</time>
      </trkpt>
      <trkpt lat="60.248724792183" lon="11.040989378696">
        <ele>193</ele>
        <time>2017-01-29T13:36:54Z</time>
      </trkpt>
      <trkpt lat="60.248709201849" lon="11.040922994048">
        <ele>193</ele>
        <time>2017-01-29T13:36:59Z</time>
      </trkpt>
      <trkpt lat="60.248611133619" lon="11.040616132689">
        <ele>192.8</ele>
        <time>2017-01-29T13:37:16Z</time>
      </trkpt>
      <trkpt lat="60.248575175268" lon="11.040479256262">
        <ele>191.2</ele>
        <time>2017-01-29T13:37:22Z</time>
      </trkpt>
      <trkpt lat="60.248456487564" lon="11.040188069056">
        <ele>192</ele>
        <time>2017-01-29T13:37:37Z</time>
      </trkpt>
      <trkpt lat="60.248328747408" lon="11.039910795804">
        <ele>191.8</ele>
        <time>2017-01-29T13:37:53Z</time>
      </trkpt>
      <trkpt lat="60.248296393274" lon="11.039831922125">
        <ele>191.8</ele>
        <time>2017-01-29T13:37:58Z</time>
      </trkpt>
      <trkpt lat="60.248156499363" lon="11.039585494265">
        <ele>192.4</ele>
        <time>2017-01-29T13:38:23Z</time>
      </trkpt>
      <trkpt lat="60.24802766956" lon="11.039332109428">
        <ele>192.2</ele>
        <time>2017-01-29T13:38:39Z</time>
      </trkpt>
      <trkpt lat="60.247894732626" lon="11.039088699052">
        <ele>191.6</ele>
        <time>2017-01-29T13:38:54Z</time>
      </trkpt>
      <trkpt lat="60.247864557786" lon="11.039041676593">
        <ele>191.6</ele>
        <time>2017-01-29T13:38:58Z</time>
      </trkpt>
      <trkpt lat="60.24772424478" lon="11.038805726108">
        <ele>192</ele>
        <time>2017-01-29T13:39:19Z</time>
      </trkpt>
      <trkpt lat="60.247628774939" lon="11.038629203294">
        <ele>191.4</ele>
        <time>2017-01-29T13:39:26Z</time>
      </trkpt>
      <trkpt lat="60.247608993655" lon="11.03860439287">
        <ele>191.4</ele>
        <time>2017-01-29T13:39:28Z</time>
      </trkpt>
      <trkpt lat="60.247478738929" lon="11.038343883418">
        <ele>190.2</ele>
        <time>2017-01-29T13:39:45Z</time>
      </trkpt>
      <trkpt lat="60.247435488325" lon="11.038244054989">
        <ele>189.6</ele>
        <time>2017-01-29T13:39:52Z</time>
      </trkpt>
      <trkpt lat="60.247397602137" lon="11.038113548806">
        <ele>188.6</ele>
        <time>2017-01-29T13:40:08Z</time>
      </trkpt>
      <trkpt lat="60.24728335684" lon="11.037819260297">
        <ele>186.2</ele>
        <time>2017-01-29T13:40:29Z</time>
      </trkpt>
      <trkpt lat="60.247167267525" lon="11.037516673707">
        <ele>184.8</ele>
        <time>2017-01-29T13:40:47Z</time>
      </trkpt>
      <trkpt lat="60.247104403275" lon="11.037357836702">
        <ele>184.2</ele>
        <time>2017-01-29T13:40:57Z</time>
      </trkpt>
      <trkpt lat="60.246997953145" lon="11.037044856556">
        <ele>182.8</ele>
        <time>2017-01-29T13:41:14Z</time>
      </trkpt>
      <trkpt lat="60.246915475249" lon="11.036699103181">
        <ele>182.4</ele>
        <time>2017-01-29T13:41:30Z</time>
      </trkpt>
      <trkpt lat="60.246839786692" lon="11.036367515217">
        <ele>183.6</ele>
        <time>2017-01-29T13:41:46Z</time>
      </trkpt>
      <trkpt lat="60.246823861082" lon="11.035999968902">
        <ele>183.8</ele>
        <time>2017-01-29T13:42:02Z</time>
      </trkpt>
      <trkpt lat="60.246869626256" lon="11.035643989609">
        <ele>186.6</ele>
        <time>2017-01-29T13:42:22Z</time>
      </trkpt>
      <trkpt lat="60.24696735921" lon="11.035337295888">
        <ele>189</ele>
        <time>2017-01-29T13:42:41Z</time>
      </trkpt>
      <trkpt lat="60.247084873448" lon="11.035043258836">
        <ele>191.2</ele>
        <time>2017-01-29T13:43:01Z</time>
      </trkpt>
      <trkpt lat="60.247223090979" lon="11.034797501528">
        <ele>190.8</ele>
        <time>2017-01-29T13:43:20Z</time>
      </trkpt>
      <trkpt lat="60.247345466719" lon="11.034507990702">
        <ele>188.2</ele>
        <time>2017-01-29T13:43:38Z</time>
      </trkpt>
      <trkpt lat="60.247461304577" lon="11.034222000274">
        <ele>187.6</ele>
        <time>2017-01-29T13:43:55Z</time>
      </trkpt>
      <trkpt lat="60.247588877095" lon="11.033959898261">
        <ele>187.4</ele>
        <time>2017-01-29T13:44:14Z</time>
      </trkpt>
      <trkpt lat="60.247696668329" lon="11.033666364123">
        <ele>186.6</ele>
        <time>2017-01-29T13:44:36Z</time>
      </trkpt>
      <trkpt lat="60.247814517843" lon="11.03338498374">
        <ele>189.4</ele>
        <time>2017-01-29T13:44:50Z</time>
      </trkpt>
      <trkpt lat="60.247904623268" lon="11.033072087413">
        <ele>188.2</ele>
        <time>2017-01-29T13:45:07Z</time>
      </trkpt>
      <trkpt lat="60.24801090576" lon="11.032774194687">
        <ele>188</ele>
        <time>2017-01-29T13:45:27Z</time>
      </trkpt>
      <trkpt lat="60.248112494388" lon="11.032465992224">
        <ele>188</ele>
        <time>2017-01-29T13:45:45Z</time>
      </trkpt>
      <trkpt lat="60.248153146603" lon="11.032354932049">
        <ele>188.4</ele>
        <time>2017-01-29T13:45:52Z</time>
      </trkpt>
      <trkpt lat="60.248284323338" lon="11.032078748444">
        <ele>188.6</ele>
        <time>2017-01-29T13:46:09Z</time>
      </trkpt>
      <trkpt lat="60.248396137884" lon="11.031788818523">
        <ele>189.2</ele>
        <time>2017-01-29T13:46:21Z</time>
      </trkpt>
      <trkpt lat="60.248421199765" lon="11.031719751667">
        <ele>189</ele>
        <time>2017-01-29T13:46:26Z</time>
      </trkpt>
      <trkpt lat="60.248545838618" lon="11.031433342144">
        <ele>189</ele>
        <time>2017-01-29T13:46:44Z</time>
      </trkpt>
      <trkpt lat="60.248677769724" lon="11.031176604547">
        <ele>188.6</ele>
        <time>2017-01-29T13:47:00Z</time>
      </trkpt>
      <trkpt lat="60.248795786876" lon="11.030882316038">
        <ele>186.8</ele>
        <time>2017-01-29T13:47:16Z</time>
      </trkpt>
      <trkpt lat="60.248920425729" lon="11.030607138261">
        <ele>187.4</ele>
        <time>2017-01-29T13:47:34Z</time>
      </trkpt>
      <trkpt lat="60.249029725705" lon="11.030311257191">
        <ele>190.6</ele>
        <time>2017-01-29T13:47:54Z</time>
      </trkpt>
      <trkpt lat="60.249140199147" lon="11.030003976737">
        <ele>189.6</ele>
        <time>2017-01-29T13:48:13Z</time>
      </trkpt>
      <trkpt lat="60.249253354797" lon="11.029707173658">
        <ele>189.6</ele>
        <time>2017-01-29T13:48:31Z</time>
      </trkpt>
      <trkpt lat="60.249358212366" lon="11.029399557928">
        <ele>189.8</ele>
        <time>2017-01-29T13:48:47Z</time>
      </trkpt>
      <trkpt lat="60.249474804595" lon="11.029109963283">
        <ele>193.4</ele>
        <time>2017-01-29T13:49:03Z</time>
      </trkpt>
      <trkpt lat="60.249642191138" lon="11.029235859421">
        <ele>195</ele>
        <time>2017-01-29T13:49:18Z</time>
      </trkpt>
      <trkpt lat="60.249806476378" lon="11.029412046959">
        <ele>195.2</ele>
        <time>2017-01-29T13:49:33Z</time>
      </trkpt>
      <trkpt lat="60.249967660315" lon="11.029574152905">
        <ele>195.6</ele>
        <time>2017-01-29T13:49:49Z</time>
      </trkpt>
      <trkpt lat="60.249989453255" lon="11.02955697001">
        <ele>195.6</ele>
        <time>2017-01-29T13:49:52Z</time>
      </trkpt>
      <trkpt lat="60.25001250348" lon="11.029471223173">
        <ele>195.4</ele>
        <time>2017-01-29T13:50:00Z</time>
      </trkpt>
    </trkseg>
  </trk>
</gpx>